M I D A S
Marine Information and Data Acquisition System
Tripno 778 of the Zeeleeuw from 2004-04-20 06:56:50 to 2004-04-20 12:07:06
Back to CruiseResearch ActivitiesStationsMapUnderway DataData graphs

EquipmentUnitsComment
TimeDGPSUTC
LatitudeDGPSDM.mWGS84
LongitudeDGPSDM.mWGS84
TemperatureSBE03/SBE38deg celciusITS90
ConductivitySBE21S/mITS90
SalinitySBE21 Practical Salinity Units
ChlorophylAChelsea fluorimeterg/lCalibrated in Aceton
Missing or incorrect values are displayed as -999
Sea surface data collected by the RV Zeeleeuw from 2004-04-20 06:56:50 to 2004-04-20 12:07:06
Time Latitude Longitude Temperature Conductivity Salinity ChlorophylA
2004-04-20 06:57:53 51°13.683 2°55.773 11.677698 0.016715 0.097803 65.120631
2004-04-20 06:58:54 51°13.704 2°55.756 10.214249 3.331939 29.090162 67.918512
2004-04-20 06:59:53 51°13.779 2°55.68 10.176746 3.230107 28.805997 67.952221
2004-04-20 07:00:57 51°13.895 2°55.597 10.095026 3.188407 28.452423 67.952221
2004-04-20 07:01:57 51°13.989 2°55.538 10.014752 3.075641 27.38379 67.98593
2004-04-20 07:02:57 51°14.081 2°55.48 9.989144 3.114491 27.831361 67.952221
2004-04-20 07:03:57 51°14.193 2°55.371 9.97568 3.278342 29.456707 67.952221
2004-04-20 07:04:57 51°14.318 2°55.163 9.932735 3.316153 29.85859 67.98593
2004-04-20 07:05:57 51°14.414 2°54.875 9.901318 3.372925 30.46244 67.98593
2004-04-20 07:06:57 51°14.399 2°54.512 9.804059 3.462782 31.42314 67.98593
2004-04-20 07:07:57 51°14.295 2°54.182 9.775592 3.577727 32.630758 67.98593
2004-04-20 07:08:57 51°14.18 2°53.862 9.779028 3.61977 33.079738 67.952221
2004-04-20 07:09:57 51°14.069 2°53.535 9.760154 3.641477 33.318506 67.918512
2004-04-20 07:10:56 51°13.968 2°53.201 9.765237 3.648221 33.384901 67.918512
2004-04-20 07:11:57 51°13.877 2°52.837 9.785004 3.66034 33.501504 67.98593
2004-04-20 07:12:57 51°13.758 2°52.496 9.775216 3.676041 33.659949 67.918512
2004-04-20 07:13:57 51°13.636 2°52.152 9.775075 3.672248 33.618256 67.918512
2004-04-20 07:14:57 51°13.506 2°51.816 9.778275 3.676674 33.670193 67.952221
2004-04-20 07:15:57 51°13.38 2°51.473 9.780487 3.67699 33.670375 68.01964
2004-04-20 07:16:57 51°13.255 2°51.129 9.792862 3.683102 33.724301 67.98593
2004-04-20 07:17:57 51°13.131 2°50.784 9.797661 3.690162 33.785596 67.952221
2004-04-20 07:18:57 51°13.004 2°50.441 9.79465 3.699542 33.882733 67.952221
2004-04-20 07:19:57 51°12.877 2°50.097 9.788298 3.702176 33.91419 68.053349
2004-04-20 07:20:57 51°12.75 2°49.752 9.779875 3.703019 33.926617 68.120768
2004-04-20 07:21:57 51°12.626 2°49.403 9.772062 3.707657 33.98159 68.087059
2004-04-20 07:22:57 51°12.499 2°49.055 9.775027 3.710607 34.015544 68.289315
2004-04-20 07:23:57 51°12.371 2°48.71 9.781945 3.716614 34.075329 65.997076
2004-04-20 07:24:57 51°12.251 2°48.359 9.788439 3.719038 34.093149 68.323024
2004-04-20 07:25:57 51°12.144 2°47.996 9.784769 3.719776 34.09914 68.087059
2004-04-20 07:26:57 51°12.038 2°47.63 9.774604 3.719987 34.105911 66.199332
2004-04-20 07:27:57 51°11.933 2°47.263 9.768862 3.721673 34.130833 61.547435
2004-04-20 07:28:57 51°11.828 2°46.896 9.761378 3.722516 34.146384 60.401315
2004-04-20 07:29:57 51°11.723 2°46.528 9.757565 3.723149 34.156702 62.862101
2004-04-20 07:30:57 51°11.628 2°46.155 9.756293 3.724624 34.171776 64.143059
2004-04-20 07:31:57 51°11.537 2°45.78 9.75281 3.724519 34.172244 68.255606
2004-04-20 07:32:57 51°11.444 2°45.405 9.741792 3.724203 34.178279 68.01964
2004-04-20 07:33:57 51°11.351 2°45.032 9.724933 3.724414 34.194344 68.053349
2004-04-20 07:34:57 51°11.259 2°44.659 9.712591 3.725046 34.213961 68.120768
2004-04-20 07:35:57 51°11.168 2°44.285 9.702509 3.724835 34.220319 68.087059
2004-04-20 07:36:56 51°11.08 2°43.917 9.684508 3.723149 34.215454 68.087059
2004-04-20 07:37:57 51°10.988 2°43.537 9.680125 3.723466 34.232638 68.120768
2004-04-20 07:38:57 51°10.899 2°43.165 9.671311 3.725257 34.258741 62.322751
2004-04-20 07:39:57 51°10.81 2°42.794 9.659761 3.726311 34.275747 56.15393
2004-04-20 07:40:57 51°10.721 2°42.423 9.640663 3.726522 34.292669 45.737725
2004-04-20 07:41:57 51°10.632 2°42.053 9.619909 3.726417 34.305586 40.546477
2004-04-20 07:42:57 51°10.544 2°41.682 9.600328 3.725258 34.31549 40.175674
2004-04-20 07:43:57 51°10.454 2°41.312 9.579939 3.723256 34.317533 37.175537
2004-04-20 07:44:57 51°10.368 2°40.941 9.563368 3.721675 34.316114 38.186819
2004-04-20 07:45:57 51°10.282 2°40.571 9.55331 3.720306 34.31374 37.782306
2004-04-20 07:46:57 51°10.194 2°40.2 9.54462 3.719673 34.319726 36.063127
2004-04-20 07:47:57 51°10.109 2°39.831 9.543392 3.719884 34.326575 32.860734
2004-04-20 07:48:57 51°10.022 2°39.46 9.557513 3.719146 34.314311 35.759742
2004-04-20 07:49:57 51°9.935 2°39.088 9.557985 3.71746 34.28685 40.883571
2004-04-20 07:50:56 51°9.851 2°38.721 9.545612 3.716301 34.284295 38.018272
2004-04-20 07:51:57 51°9.762 2°38.341 9.543298 3.714931 34.277235 40.816153
2004-04-20 07:52:57 51°9.675 2°37.968 9.547643 3.714193 34.2642 41.422922
2004-04-20 07:53:56 51°9.589 2°37.6 9.546321 3.710294 34.2257 47.625452
2004-04-20 07:54:57 51°9.5 2°37.219 9.550571 3.707132 34.189339 64.716118
2004-04-20 07:55:57 51°9.417 2°36.84 9.54462 3.706395 34.181763 68.255606
2004-04-20 07:56:57 51°9.331 2°36.576 9.535551 3.706711 34.193562 52.78299
2004-04-20 07:57:57 51°9.249 2°36.48 9.538716 3.707449 34.205807 35.591195
2004-04-20 07:58:57 51°9.206 2°36.4 9.548871 3.708292 34.206689 27.838033
2004-04-20 07:59:57 51°9.195 2°36.37 9.548257 3.707975 34.194887 31.175264
2004-04-20 08:00:57 51°9.185 2°36.338 9.54155 3.708502 34.205742 40.243093
2004-04-20 08:01:57 51°9.176 2°36.305 9.538527 3.70787 34.204692 45.838853
2004-04-20 08:02:56 51°9.166 2°36.271 9.534418 3.707659 34.204861 48.603024
2004-04-20 08:03:57 51°9.158 2°36.234 9.539803 3.707238 34.201308 49.917691
2004-04-20 08:04:57 51°9.15 2°36.196 9.542589 3.70787 34.204692 49.883982
2004-04-20 08:05:57 51°9.142 2°36.158 9.548257 3.707975 34.201108 50.794136
2004-04-20 08:06:57 51°9.133 2°36.104 9.547879 3.708397 34.202327 51.09752
2004-04-20 08:07:57 51°9.105 2°36.017 9.545801 3.70924 34.210985 52.614443
2004-04-20 08:08:57 51°9.072 2°35.939 9.558882 3.70924 34.210208 48.063674
2004-04-20 08:09:57 51°9.035 2°35.841 9.558268 3.709767 34.206287 40.243093
2004-04-20 08:10:56 51°9.002 2°35.733 9.547171 3.709451 34.208483 40.479059
2004-04-20 08:11:57 51°8.974 2°35.625 9.543345 3.709345 34.214402 42.164529
2004-04-20 08:12:57 51°8.952 2°35.53 9.546321 3.709556 34.218123 40.580187
2004-04-20 08:13:57 51°8.933 2°35.442 9.549674 3.710294 34.222587 38.186819
2004-04-20 08:14:57 51°8.914 2°35.36 9.55586 3.710926 34.222857 34.107982
2004-04-20 08:15:56 51°8.893 2°35.282 9.562235 3.711875 34.228707 32.692187
2004-04-20 08:16:57 51°8.869 2°35.202 9.564218 3.712612 34.228503 32.388802
2004-04-20 08:17:57 51°8.844 2°35.125 9.563226 3.713455 34.237937 32.759606
2004-04-20 08:18:57 51°8.817 2°35.047 9.561715 3.713455 34.241049 32.456221
2004-04-20 08:19:57 51°8.79 2°34.969 9.565304 3.713245 34.238107 33.164118
2004-04-20 08:20:57 51°8.763 2°34.89 9.563793 3.714615 34.249061 30.80446
2004-04-20 08:21:57 51°8.735 2°34.81 9.56672 3.714615 34.250618 31.107845
2004-04-20 08:22:57 51°8.708 2°34.731 9.569553 3.715458 34.253826 29.489794
2004-04-20 08:23:57 51°8.681 2°34.651 9.571111 3.71609 34.258761 29.995435
2004-04-20 08:24:56 51°8.655 2°34.573 9.566626 3.716511 34.263089 32.658477
2004-04-20 08:25:57 51°8.628 2°34.493 9.568562 3.716195 34.264515 33.872016
2004-04-20 08:26:57 51°8.602 2°34.414 9.571206 3.715458 34.25694 32.860734
2004-04-20 08:27:57 51°8.575 2°34.336 9.563793 3.716195 34.260622 32.388802
2004-04-20 08:28:57 51°8.549 2°34.259 9.558505 3.715879 34.264383 35.220392
2004-04-20 08:29:57 51°8.524 2°34.18 9.560629 3.715668 34.263776 36.130546
2004-04-20 08:30:57 51°8.496 2°34.103 9.561149 3.715668 34.262997 36.164255
2004-04-20 08:31:57 51°8.468 2°34.028 9.55841 3.715879 34.265161 34.613623
2004-04-20 08:32:57 51°8.44 2°33.953 9.560346 3.715985 34.266244 33.905725
2004-04-20 08:33:57 51°8.411 2°33.879 9.560299 3.716722 34.27382 36.063127
2004-04-20 08:34:57 51°8.382 2°33.807 9.562518 3.717565 34.278583 34.074272
2004-04-20 08:35:57 51°8.353 2°33.735 9.56266 3.717987 34.282133 33.029281
2004-04-20 08:36:57 51°8.325 2°33.663 9.558268 3.713034 34.235943 34.681042
2004-04-20 08:37:57 51°8.298 2°33.59 9.556427 3.719884 34.30941 35.018136
2004-04-20 08:38:57 51°8.271 2°33.516 9.555577 3.719568 34.307722 36.130546
2004-04-20 08:39:57 51°8.245 2°33.443 9.555105 3.719779 34.311447 36.703606
2004-04-20 08:40:56 51°8.221 2°33.37 9.555152 3.720095 34.310795 37.242956
2004-04-20 08:41:57 51°8.194 2°33.295 9.561857 3.7202 34.313437 38.220529
2004-04-20 08:42:57 51°8.17 2°33.222 9.562801 3.720622 34.312308 33.501212
2004-04-20 08:43:57 51°8.145 2°33.15 9.559685 3.720727 34.31417 36.737315
2004-04-20 08:44:57 51°8.121 2°33.077 9.563651 3.720516 34.313565 39.096973
2004-04-20 08:45:57 51°8.097 2°33.006 9.561338 3.720411 34.311703 39.568905
2004-04-20 08:46:57 51°8.072 2°32.929 9.564643 3.720727 34.31495 39.029554
2004-04-20 08:47:57 51°8.051 2°32.848 9.569317 3.721149 34.313041 36.299093
2004-04-20 08:48:57 51°8.03 2°32.764 9.568467 3.720727 34.307933 36.231674
2004-04-20 08:49:57 51°8.004 2°32.679 9.573991 3.721149 34.310702 35.557486
2004-04-20 08:50:57 51°7.973 2°32.605 9.579325 3.721781 34.3094 31.175264
2004-04-20 08:51:57 51°7.941 2°32.551 9.582771 3.722308 34.310134 32.557349
2004-04-20 08:52:57 51°7.911 2°32.507 9.585603 3.722518 34.306065 33.602341
2004-04-20 08:53:57 51°7.856 2°32.5 9.594193 3.722624 34.307926 36.669896
2004-04-20 08:54:56 51°7.84 2°32.574 9.584895 3.722518 34.305286 35.523777
2004-04-20 08:55:57 51°7.858 2°32.625 9.594524 3.722624 34.306368 33.770888
2004-04-20 08:56:57 51°7.877 2°32.683 9.593061 3.723572 34.308313 29.69205
2004-04-20 08:57:56 51°7.895 2°32.742 9.589615 3.72294 34.308055 30.298819
2004-04-20 08:58:57 51°7.914 2°32.804 9.583904 3.722834 34.307752 30.2314
2004-04-20 08:59:57 51°7.932 2°32.864 9.581355 3.722518 34.31074 33.703469
2004-04-20 09:00:57 51°7.953 2°32.918 9.582205 3.722413 34.313554 32.388802
2004-04-20 09:01:57 51°7.975 2°32.971 9.579845 3.723045 34.31459 27.635777
2004-04-20 09:02:57 51°7.995 2°33.028 9.575077 3.722413 34.312775 28.849315
2004-04-20 09:03:57 51°8.016 2°33.085 9.566909 3.721992 34.313903 30.737042
2004-04-20 09:04:57 51°8.037 2°33.141 9.569978 3.72157 34.312692 31.916871
2004-04-20 09:05:57 51°8.059 2°33.197 9.567617 3.720727 34.300918 32.186546
2004-04-20 09:06:57 51°8.081 2°33.253 9.568137 3.720095 34.298322 33.029281
2004-04-20 09:07:57 51°8.102 2°33.309 9.568609 3.719357 34.292305 32.759606
2004-04-20 09:08:57 51°8.123 2°33.364 9.571772 3.71883 34.284558 33.366375
2004-04-20 09:09:57 51°8.145 2°33.419 9.577532 3.718198 34.275729 34.107982
2004-04-20 09:10:57 51°8.165 2°33.475 9.571725 3.717776 34.270623 32.860734
2004-04-20 09:11:57 51°8.186 2°33.53 9.567287 3.716933 34.262747 32.017999
2004-04-20 09:12:57 51°8.208 2°33.585 9.567287 3.716511 34.259197 30.80446
2004-04-20 09:13:57 51°8.224 2°33.644 9.567665 3.716511 34.260754 31.647195
2004-04-20 09:14:57 51°8.239 2°33.706 9.561007 3.715563 34.255687 36.299093
2004-04-20 09:15:57 51°8.255 2°33.766 9.565634 3.715036 34.250276 36.164255
2004-04-20 09:16:57 51°8.271 2°33.826 9.569648 3.715458 34.249935 33.838306
2004-04-20 09:17:57 51°8.287 2°33.885 9.571442 3.715458 34.248379 33.467503
2004-04-20 09:18:57 51°8.307 2°33.939 9.577626 3.715036 34.24094 32.624768
2004-04-20 09:19:57 51°8.329 2°33.991 9.589332 3.715774 34.23607 28.073999
2004-04-20 09:20:57 51°8.351 2°34.044 9.588907 3.715563 34.232352 28.040289
2004-04-20 09:21:57 51°8.372 2°34.098 9.583715 3.715036 34.230832 29.253828
2004-04-20 09:22:57 51°8.394 2°34.151 9.57942 3.714404 34.224344 29.759469
2004-04-20 09:23:57 51°8.416 2°34.207 9.583196 3.713877 34.221269 33.197828
2004-04-20 09:24:57 51°8.44 2°34.265 9.587067 3.713771 34.214748 36.197965
2004-04-20 09:25:57 51°8.465 2°34.325 9.585934 3.713771 34.213971 41.186956
2004-04-20 09:26:57 51°8.491 2°34.383 9.599101 3.713771 34.210864 45.299503
2004-04-20 09:27:57 51°8.521 2°34.436 9.612644 3.71493 34.208778 42.737589
2004-04-20 09:28:57 51°8.549 2°34.49 9.60802 3.716089 34.215231 41.625178
2004-04-20 09:29:57 51°8.58 2°34.547 9.607595 3.716089 34.218336 40.141965
2004-04-20 09:30:57 51°8.609 2°34.598 9.617079 3.7163 34.222051 35.557486
2004-04-20 09:31:57 51°8.636 2°34.647 9.62491 3.718302 34.227053 29.489794
2004-04-20 09:32:57 51°8.655 2°34.699 9.624485 3.719567 34.235358 27.838033
2004-04-20 09:33:57 51°8.673 2°34.753 9.626042 3.720621 34.247715 27.231264
2004-04-20 09:34:57 51°8.692 2°34.806 9.628353 3.721253 34.256527 26.759332
2004-04-20 09:35:57 51°8.711 2°34.859 9.621136 3.722096 34.261286 23.961452
2004-04-20 09:36:57 51°8.731 2°34.905 9.607595 3.721464 34.263351 25.040153
2004-04-20 09:37:57 51°8.746 2°34.931 9.6117 3.720832 34.266972 25.343537
2004-04-20 09:38:57 51°8.76 2°34.944 9.63241 3.721991 34.267199 21.80405
2004-04-20 09:39:57 51°8.771 2°34.95 9.640616 3.723677 34.268944 19.781486
2004-04-20 09:40:57 51°8.779 2°34.949 9.656413 3.725047 34.273663 19.478101
2004-04-20 09:41:57 51°8.788 2°34.947 9.663768 3.726733 34.278512 18.736494
2004-04-20 09:42:57 51°8.8 2°34.945 9.680832 3.727471 34.280633 18.601657
2004-04-20 09:43:57 51°8.815 2°34.947 9.68432 3.729578 34.288244 19.00617
2004-04-20 09:44:57 51°8.828 2°34.958 9.663768 3.730632 34.296707 18.905042
2004-04-20 09:45:57 51°8.838 2°34.977 9.639201 3.728735 34.304467 25.410956
2004-04-20 09:46:57 51°8.845 2°35.004 9.62991 3.72726 34.304895 29.220118
2004-04-20 09:47:57 51°8.842 2°35.037 9.624155 3.726944 34.306321 28.984153
2004-04-20 09:48:57 51°8.832 2°35.072 9.617786 3.726733 34.31194 30.737042
2004-04-20 09:49:57 51°8.812 2°35.106 9.614201 3.726523 34.314448 31.984289
2004-04-20 09:50:57 51°8.786 2°35.135 9.626938 3.727155 34.314706 28.141418
2004-04-20 09:51:57 51°8.759 2°35.155 9.631042 3.727471 34.314057 25.478375
2004-04-20 09:52:57 51°8.735 2°35.171 9.62925 3.72726 34.307229 25.680631
2004-04-20 09:53:57 51°8.715 2°35.186 9.642456 3.727049 34.30429 25.781759
2004-04-20 09:54:57 51°8.699 2°35.2 9.661882 3.728314 34.298593 23.118717
2004-04-20 09:55:57 51°8.685 2°35.213 9.672772 3.728946 34.291863 22.006306
2004-04-20 09:56:57 51°8.673 2°35.224 9.663485 3.727154 34.269633 23.422101
2004-04-20 09:57:57 51°8.661 2°35.236 9.659054 3.728103 34.28711 28.175127
2004-04-20 09:58:57 51°8.651 2°35.246 9.659337 3.726733 34.278512 31.37752
2004-04-20 09:59:57 51°8.641 2°35.255 9.672489 3.726944 34.273683 31.175264
2004-04-20 10:00:57 51°8.633 2°35.264 9.673809 3.727576 34.270845 30.467366
2004-04-20 10:01:57 51°8.625 2°35.273 9.711508 3.728208 34.264131 30.737042
2004-04-20 10:02:57 51°8.618 2°35.282 9.708869 3.729789 34.259378 26.86046
2004-04-20 10:03:57 51°8.61 2°35.291 9.704724 3.729156 34.258333 29.085281
2004-04-20 10:04:57 51°8.605 2°35.299 9.693462 3.725573 34.223996 29.624631
2004-04-20 10:05:57 51°8.621 2°35.356 9.685404 3.724625 34.223583 32.894443
2004-04-20 10:06:57 51°8.706 2°35.504 9.729548 3.726416 34.227976 27.669486
2004-04-20 10:07:57 51°8.774 2°35.734 9.6442 3.727892 34.259344 25.2087
2004-04-20 10:08:57 51°8.843 2°35.979 9.633966 3.725047 34.279101 27.568358
2004-04-20 10:09:57 51°8.911 2°36.229 9.6384 3.725152 34.279404 25.309828
2004-04-20 10:10:57 51°8.979 2°36.48 9.649058 3.725785 34.282776 26.455947
2004-04-20 10:11:57 51°9.034 2°36.74 9.658629 3.727681 34.29056 26.186272
2004-04-20 10:12:57 51°9.086 2°37.002 9.664381 3.729262 34.300539 25.107571
2004-04-20 10:13:57 51°9.139 2°37.267 9.66688 3.730211 34.302486 20.69164
2004-04-20 10:14:57 51°9.192 2°37.532 9.662967 3.730632 34.311466 22.040016
2004-04-20 10:15:57 51°9.245 2°37.797 9.664711 3.731792 34.321787 18.43311
2004-04-20 10:16:57 51°9.299 2°38.061 9.675317 3.732635 34.324982 16.343127
2004-04-20 10:17:57 51°9.353 2°38.326 9.680691 3.733583 34.326924 15.399264
2004-04-20 10:18:57 51°9.408 2°38.592 9.693886 3.733899 34.320061 15.668939
2004-04-20 10:19:57 51°9.463 2°38.857 9.707456 3.734426 34.317689 15.972324
2004-04-20 10:20:57 51°9.517 2°39.123 9.72286 3.73569 34.315882 15.803777
2004-04-20 10:21:57 51°9.571 2°39.389 9.746359 3.737587 34.317443 16.612802
2004-04-20 10:22:57 51°9.627 2°39.655 9.767073 3.739273 34.312974 18.028597
2004-04-20 10:23:57 51°9.682 2°39.921 9.795403 3.740959 34.308513 19.343264
2004-04-20 10:24:57 51°9.737 2°40.188 9.814784 3.74254 34.298344 21.905178
2004-04-20 10:25:57 51°9.792 2°40.454 9.830257 3.743066 34.289031 25.74805
2004-04-20 10:26:57 51°9.846 2°40.721 9.844785 3.743277 34.279592 28.883024
2004-04-20 10:27:57 51°9.901 2°40.988 9.857478 3.743488 34.269388 33.905725
2004-04-20 10:28:57 51°9.957 2°41.256 9.863823 3.743488 34.257043 34.950717
2004-04-20 10:29:57 51°10.012 2°41.525 9.876136 3.743487 34.246249 32.725896
2004-04-20 10:30:57 51°10.078 2°41.838 9.888258 3.743487 34.236232 32.456221
2004-04-20 10:31:57 51°10.151 2°42.181 9.889104 3.742433 34.220107 38.1194
2004-04-20 10:32:57 51°10.224 2°42.528 9.89911 3.740958 34.201233 43.984836
2004-04-20 10:33:57 51°10.298 2°42.876 9.919447 3.741063 34.190772 41.153247
2004-04-20 10:34:57 51°10.373 2°43.226 9.934801 3.744646 34.184983 34.20911
2004-04-20 10:35:57 51°10.447 2°43.577 9.930059 3.741906 34.183984 51.636871
2004-04-20 10:36:57 51°10.524 2°43.928 9.969017 3.743381 34.174425 49.681725
2004-04-20 10:37:57 51°10.6 2°44.281 9.986986 3.745172 34.165029 37.748597
2004-04-20 10:38:57 51°10.678 2°44.633 9.989285 3.744224 34.143902 47.760289
2004-04-20 10:39:57 51°10.756 2°44.986 9.976337 3.742011 34.129077 48.8727
2004-04-20 10:40:57 51°10.834 2°45.337 9.963292 3.739798 34.118074 43.142101
2004-04-20 10:41:57 51°10.913 2°45.692 9.979762 3.738427 34.097267 37.917144
2004-04-20 10:42:57 51°10.992 2°46.047 10.008468 3.73927 34.076785 41.085828
2004-04-20 10:43:57 51°11.071 2°46.402 9.972161 3.736319 34.053704 50.591879
2004-04-20 10:44:57 51°11.152 2°46.756 9.961086 3.727045 33.996163 41.085828
2004-04-20 10:45:57 51°11.244 2°47.105 9.971129 3.721776 33.946453 43.378067
2004-04-20 10:46:57 51°11.314 2°47.335 9.947945 3.720511 33.918384 41.018409
2004-04-20 10:47:57 51°11.375 2°47.426 10.108279 3.719668 33.87563 35.591195
2004-04-20 10:48:57 51°11.399 2°47.47 10.088938 3.730205 33.857369 23.826614
2004-04-20 10:49:57 51°11.415 2°47.511 10.04827 3.724831 33.876388 30.703332
2004-04-20 10:50:57 51°11.428 2°47.557 10.043208 3.723567 33.874947 32.051708
2004-04-20 10:51:57 51°11.449 2°47.614 10.087298 3.722829 33.876572 32.860734
2004-04-20 10:52:57 51°11.477 2°47.677 10.124431 3.728308 33.862378 30.534785
2004-04-20 10:53:57 51°11.505 2°47.747 10.074042 3.728098 33.87235 31.310101
2004-04-20 10:54:57 51°11.533 2°47.821 10.073292 3.725885 33.88024 38.321657
2004-04-20 10:55:57 51°11.554 2°47.898 10.095963 3.726412 33.872697 40.512768
2004-04-20 10:56:57 51°11.574 2°47.975 10.087111 3.726938 33.867432 44.456768
2004-04-20 10:57:57 51°11.597 2°48.054 10.126818 3.72599 33.859348 45.838853
2004-04-20 10:58:57 51°11.624 2°48.133 10.205226 3.730626 33.841995 45.164665
2004-04-20 10:59:57 51°11.653 2°48.213 10.177167 3.734104 33.834877 45.501759
2004-04-20 11:00:57 51°11.681 2°48.294 10.120733 3.729151 33.833127 44.288221
2004-04-20 11:01:57 51°11.707 2°48.377 10.081303 3.724093 33.828813 41.052118
2004-04-20 11:02:57 51°11.734 2°48.461 10.080319 3.720299 33.812347 38.928426
2004-04-20 11:03:57 51°11.762 2°48.545 10.082521 3.719034 33.798039 37.209247
2004-04-20 11:04:57 51°11.794 2°48.625 10.184417 3.71914 33.774946 36.43393
2004-04-20 11:05:57 51°11.826 2°48.699 10.28522 3.727569 33.749416 34.377657
2004-04-20 11:06:57 51°11.859 2°48.769 10.313186 3.733786 33.742282 34.681042
2004-04-20 11:07:57 51°11.891 2°48.842 10.252991 3.732943 33.746536 37.816016
2004-04-20 11:08:57 51°11.922 2°48.917 10.177869 3.727253 33.746228 40.580187
2004-04-20 11:09:57 51°11.954 2°48.993 10.125227 3.720509 33.747344 44.793862
2004-04-20 11:10:57 51°11.985 2°49.07 10.12078 3.717453 33.742823 47.692871
2004-04-20 11:11:57 51°12.018 2°49.144 10.154197 3.716926 33.734486 49.310922
2004-04-20 11:12:57 51°12.052 2°49.217 10.228505 3.720719 33.723146 48.771571
2004-04-20 11:13:57 51°12.087 2°49.289 10.313792 3.727253 33.712469 46.58046
2004-04-20 11:14:57 51°12.124 2°49.362 10.329707 3.733364 33.712591 44.827571
2004-04-20 11:15:57 51°12.157 2°49.439 10.263596 3.731362 33.723881 48.83899
2004-04-20 11:16:57 51°12.187 2°49.515 10.235469 3.727253 33.720715 55.344905
2004-04-20 11:17:57 51°12.217 2°49.593 10.210275 3.724091 33.718109 59.255195
2004-04-20 11:18:57 51°12.247 2°49.67 10.228786 3.722511 33.709676 60.300187
2004-04-20 11:19:57 51°12.277 2°49.748 10.275133 3.723986 33.696048 64.345315
2004-04-20 11:20:57 51°12.309 2°49.825 10.287321 3.726093 33.687316 68.087059
2004-04-20 11:21:57 51°12.342 2°49.9 10.294559 3.726093 33.673848 68.356734
2004-04-20 11:22:57 51°12.375 2°49.977 10.277515 3.724618 33.664236 68.323024
2004-04-20 11:23:57 51°12.408 2°50.054 10.266632 3.721878 33.647127 68.154477
2004-04-20 11:24:57 51°12.442 2°50.132 10.254253 3.719243 33.636306 68.188187
2004-04-20 11:25:57 51°12.475 2°50.208 10.286948 3.718295 33.620776 66.098204
2004-04-20 11:26:57 51°12.508 2°50.285 10.275553 3.718716 33.607093 63.468871
2004-04-20 11:27:57 51°12.542 2°50.364 10.235656 3.715449 33.595868 62.727264
2004-04-20 11:28:57 51°12.574 2°50.442 10.21883 3.711972 33.581764 59.356324
2004-04-20 11:29:57 51°12.606 2°50.52 10.245515 3.709864 33.569498 56.322477
2004-04-20 11:30:57 51°12.642 2°50.597 10.308564 3.712814 33.546976 52.8167
2004-04-20 11:31:57 51°12.687 2°50.677 10.31902 3.714184 33.541387 55.07523
2004-04-20 11:32:57 51°12.73 2°50.744 10.322614 3.714184 33.530966 58.479879
2004-04-20 11:33:57 51°12.825 2°50.784 10.278635 3.711866 33.525521 60.839537
2004-04-20 11:34:57 51°12.875 2°50.648 10.339366 3.710706 33.502708 55.749418
2004-04-20 11:35:57 51°12.807 2°50.498 10.337687 3.713446 33.512398 44.827571
2004-04-20 11:36:57 51°12.713 2°50.358 10.197417 3.713657 33.564403 40.613896
2004-04-20 11:37:57 51°12.653 2°50.282 10.160934 3.707441 33.601914 49.243503
2004-04-20 11:38:57 51°12.612 2°50.28 10.424882 3.717135 33.592681 40.276802
2004-04-20 11:39:57 51°12.578 2°50.276 10.479053 3.735365 33.629792 33.467503
2004-04-20 11:40:57 51°12.618 2°50.216 10.441096 3.74211 33.693694 47.018683
2004-04-20 11:41:57 51°12.662 2°50.239 10.345758 3.744745 33.710426 47.086101
2004-04-20 11:42:57 51°12.688 2°50.281 10.217988 3.727779 33.699798 64.244187
2004-04-20 11:43:57 51°12.713 2°50.328 10.169308 3.718928 33.687801 68.120768
2004-04-20 11:44:57 51°12.738 2°50.376 10.155507 3.715029 33.682989 68.087059
2004-04-20 11:45:57 51°12.765 2°50.427 10.131593 3.713975 33.676857 68.053349
2004-04-20 11:46:57 51°12.792 2°50.477 10.079007 3.710708 33.68219 68.01964
2004-04-20 11:47:57 51°12.819 2°50.528 10.027786 3.706915 33.695022 68.01964
2004-04-20 11:48:57 51°12.849 2°50.58 9.997212 3.70407 33.705437 68.01964
2004-04-20 11:49:57 51°12.928 2°50.712 9.991443 3.693954 33.620294 68.053349
2004-04-20 11:50:57 51°13.08 2°51.008 9.988488 3.704492 33.726325 68.053349
2004-04-20 11:51:57 51°13.229 2°51.357 10.003544 3.704914 33.727575 68.120768
2004-04-20 11:52:57 51°13.378 2°51.705 9.984031 3.703965 33.736105 68.120768
2004-04-20 11:53:57 51°13.53 2°52.053 10.013157 3.703965 33.700595 64.850956
2004-04-20 11:54:57 51°13.682 2°52.401 10.016627 3.698064 33.658164 57.097794
2004-04-20 11:55:57 51°13.835 2°52.749 10.143247 3.689316 33.517749 59.625999
2004-04-20 11:56:57 51°13.962 2°53.116 10.077415 3.689736 33.433787 59.828255
2004-04-20 11:57:57 51°14.123 2°53.445 10.186989 3.674141 33.335281 51.13123
2004-04-20 11:58:57 51°14.302 2°53.751 10.14919 3.674034 33.240655 51.198648
2004-04-20 11:59:57 51°14.472 2°54.068 10.229159 3.661178 33.140049 61.075503
2004-04-20 12:00:57 51°14.505 2°54.455 10.131967 3.645688 33.009123 51.906546
2004-04-20 12:01:57 51°14.427 2°54.826 10.16056 3.633675 32.853723 46.816426
2004-04-20 12:02:57 51°14.33 2°55.13 9.984031 3.652642 33.05116 66.87352
2004-04-20 12:03:57 51°14.225 2°55.325 10.194425 3.637787 33.071976 67.98593
2004-04-20 12:04:57 51°14.119 2°55.442 10.39109 3.49259 31.307038 68.01964
2004-04-20 12:05:57 51°13.998 2°55.523 10.321494 3.435913 30.70703 67.98593
2004-04-20 12:06:57 51°13.87 2°55.611 10.29045 3.351854 29.91164 68.01964